Johnstown, New York
Current Conditions -  °F | °C
As of 9:15 AM on Friday 28 Nov 2014 (Local Time) from KNY0 Reporting Station
Clear Clear  
Wind Chill: 15°   Ceiling: Unl
Heat Index: 23°   Visibility: 10mi
Dew Point: 14°   Wind: 6mph
Humidity: 71%   Direction: 280°W
Pressure: 30.12"   Gusts: NA
Location:  43.01°N, 74.37°W
Report Text: KNY0 281415Z AUTO 28005KT 10SM CLR M05/M10 A3012 RMK AO2 T10521098
Loading
Personal Weather Stations






























Interactive Weather Map New forecast layout! Learn more

10-Day Weather Forecast

Advertisements
Track Severe Weather on mobile